createdAt,value
2022-09-24T00:01:30.237Z,87.22
2022-09-24T00:04:02.269Z,87.06
2022-09-24T00:06:30.759Z,87.59
2022-09-24T00:08:58.061Z,87.43
2022-09-24T00:11:27.617Z,88.25
2022-09-24T00:13:55.625Z,87.99
2022-09-24T00:16:25.663Z,88.26
2022-09-24T00:18:53.662Z,87.53
2022-09-24T00:21:24.609Z,87.38
2022-09-24T00:23:53.217Z,88.00
2022-09-24T00:26:38.717Z,87.33
2022-09-24T00:29:07.444Z,87.33
2022-09-24T00:31:33.993Z,87.61
2022-09-24T00:34:00.974Z,88.48
2022-09-24T00:36:27.956Z,88.70
2022-09-24T00:38:57.267Z,89.17
2022-09-24T00:41:27.180Z,88.35
2022-09-24T00:43:53.562Z,89.01
2022-09-24T00:46:39.741Z,88.88
2022-09-24T00:49:12.178Z,89.33
2022-09-24T00:51:40.920Z,88.54
2022-09-24T00:54:12.864Z,89.14
2022-09-24T00:56:42.283Z,89.99
2022-09-24T00:59:11.594Z,89.17
2022-09-24T01:01:38.052Z,89.89
2022-09-24T01:04:05.953Z,89.77
2022-09-24T01:06:32.444Z,90.41
2022-09-24T01:09:00.061Z,90.79
2022-09-24T01:11:48.104Z,90.97
2022-09-24T01:14:33.004Z,90.78
2022-09-24T01:17:20.850Z,89.74
2022-09-24T01:20:17.712Z,90.04
2022-09-24T01:23:13.596Z,90.50
2022-09-24T01:26:12.169Z,89.55
2022-09-24T01:29:09.658Z,90.11
2022-09-24T01:32:05.857Z,91.23
2022-09-24T01:34:42.791Z,89.27
2022-09-24T01:37:09.899Z,89.17
2022-09-24T01:39:37.839Z,90.19
2022-09-24T01:42:05.712Z,91.68
2022-09-24T01:44:34.115Z,90.21
2022-09-24T01:47:00.719Z,89.33
2022-09-24T01:49:27.143Z,88.18
2022-09-24T01:52:01.415Z,88.72
2022-09-24T01:54:36.443Z,89.05
2022-09-24T01:57:11.777Z,89.17
2022-09-24T01:59:41.974Z,90.99
2022-09-24T02:02:23.329Z,89.38
2022-09-24T02:04:57.802Z,87.86
2022-09-24T02:07:30.417Z,87.68
2022-09-24T02:09:56.833Z,87.41
2022-09-24T02:12:34.924Z,86.79
2022-09-24T02:15:32.421Z,87.82
2022-09-24T02:18:06.411Z,88.86
2022-09-24T02:20:35.460Z,89.49
2022-09-24T02:23:04.640Z,88.89
2022-09-24T02:25:39.324Z,90.01
2022-09-24T02:28:05.728Z,89.34
2022-09-24T02:30:37.889Z,88.24
2022-09-24T02:33:28.684Z,89.57
2022-09-24T02:35:55.092Z,91.39
2022-09-24T02:38:23.117Z,91.96
2022-09-24T02:40:50.471Z,90.74
2022-09-24T02:43:16.881Z,89.94
2022-09-24T02:45:43.307Z,89.31
2022-09-24T02:48:09.675Z,89.17
2022-09-24T02:50:36.058Z,88.95
2022-09-24T02:53:02.445Z,88.60
2022-09-24T02:55:36.315Z,88.93
2022-09-24T02:58:02.708Z,87.81
2022-09-24T03:00:29.094Z,88.52
2022-09-24T03:02:55.571Z,87.77
2022-09-24T03:05:22.025Z,88.23
2022-09-24T03:07:48.413Z,87.46
2022-09-24T03:10:14.863Z,88.16
2022-09-24T03:12:43.650Z,89.06
2022-09-24T03:15:10.833Z,88.84
2022-09-24T03:17:37.270Z,89.91
2022-09-24T03:20:04.095Z,89.90
2022-09-24T03:22:30.503Z,90.71
2022-09-24T03:24:56.894Z,89.07
2022-09-24T03:27:23.328Z,90.39
2022-09-24T03:30:08.562Z,91.32
2022-09-24T03:32:42.030Z,91.49
2022-09-24T03:35:08.726Z,90.30
2022-09-24T03:37:37.410Z,90.26
2022-09-24T03:40:06.904Z,89.76
2022-09-24T03:42:34.498Z,90.17
2022-09-24T03:45:01.152Z,91.24
2022-09-24T03:47:27.544Z,91.32
2022-09-24T03:49:53.929Z,90.54
2022-09-24T03:52:20.349Z,90.39
2022-09-24T03:54:46.726Z,89.24
2022-09-24T03:57:14.815Z,90.66
2022-09-24T03:59:44.710Z,89.92
2022-09-24T04:02:11.934Z,89.96
2022-09-24T04:04:38.724Z,89.89
2022-09-24T04:07:05.564Z,88.96
2022-09-24T04:09:31.966Z,89.02
2022-09-24T04:11:59.067Z,88.74
2022-09-24T04:14:25.469Z,89.03
2022-09-24T04:16:51.892Z,90.34
2022-09-24T04:19:19.077Z,91.37
2022-09-24T04:21:45.903Z,91.62
2022-09-24T04:24:12.748Z,92.55
2022-09-24T04:26:39.184Z,91.06
2022-09-24T04:29:06.544Z,90.99
2022-09-24T04:31:33.373Z,91.21
2022-09-24T04:34:00.568Z,91.93
2022-09-24T04:36:27.010Z,92.38
2022-09-24T04:38:53.382Z,90.67
2022-09-24T04:41:20.616Z,91.00
2022-09-24T04:43:47.000Z,90.29
2022-09-24T04:46:13.589Z,91.37
2022-09-24T04:48:40.312Z,91.52
2022-09-24T04:51:07.763Z,91.02
2022-09-24T04:53:37.345Z,91.32
2022-09-24T04:56:05.689Z,91.38
2022-09-24T04:58:32.078Z,90.95
2022-09-24T05:01:03.741Z,93.58
2022-09-24T05:03:30.197Z,92.30
2022-09-24T05:05:56.647Z,94.65
2022-09-24T05:08:23.087Z,95.41
2022-09-24T05:10:49.458Z,94.35
2022-09-24T05:13:15.840Z,93.60
2022-09-24T05:15:43.288Z,94.87
2022-09-24T05:18:09.955Z,94.49
2022-09-24T05:20:36.722Z,93.12
2022-09-24T05:23:03.098Z,91.82
2022-09-24T05:25:29.480Z,94.04
2022-09-24T05:27:56.104Z,94.22
2022-09-24T05:30:24.366Z,92.72
2022-09-24T05:32:52.305Z,93.45
2022-09-24T05:35:20.318Z,94.73
2022-09-24T05:37:48.991Z,94.53
2022-09-24T05:40:34.771Z,93.80
2022-09-24T05:43:01.904Z,93.14
2022-09-24T05:45:31.818Z,92.75
2022-09-24T05:47:59.968Z,94.54
2022-09-24T05:50:26.460Z,93.13
2022-09-24T05:52:52.852Z,92.94
2022-09-24T05:55:19.342Z,94.35
2022-09-24T05:57:45.723Z,92.92
2022-09-24T06:00:12.297Z,93.33
2022-09-24T06:02:39.141Z,94.73
2022-09-24T06:05:06.151Z,94.35
2022-09-24T06:07:32.523Z,93.68
2022-09-24T06:10:02.013Z,94.20
2022-09-24T06:12:28.405Z,95.29
2022-09-24T06:14:54.940Z,94.77
2022-09-24T06:17:22.054Z,95.17
2022-09-24T06:19:48.430Z,95.67
2022-09-24T06:22:14.898Z,96.03
2022-09-24T06:24:41.276Z,96.39
2022-09-24T06:27:07.790Z,96.55
2022-09-24T06:29:34.158Z,97.15
2022-09-24T06:32:01.875Z,100.00
2022-09-24T06:34:28.675Z,98.43
2022-09-24T06:36:55.779Z,96.48
2022-09-24T06:39:23.945Z,95.14
2022-09-24T06:41:51.421Z,93.24
2022-09-24T06:44:19.115Z,91.89
2022-09-24T06:46:45.955Z,92.19
2022-09-24T06:49:12.551Z,92.34
2022-09-24T06:51:39.069Z,91.44
2022-09-24T06:54:06.076Z,91.75
2022-09-24T06:56:32.555Z,90.78
2022-09-24T06:58:58.976Z,91.07
2022-09-24T07:01:25.461Z,91.83
2022-09-24T07:04:00.637Z,91.58
2022-09-24T07:06:46.992Z,91.37
2022-09-24T07:09:13.391Z,90.47
2022-09-24T07:11:39.770Z,90.35
2022-09-24T07:14:06.222Z,89.97
2022-09-24T07:16:32.675Z,89.61
2022-09-24T07:18:59.084Z,89.88
2022-09-24T07:21:25.474Z,89.50
2022-09-24T07:23:56.382Z,88.62
2022-09-24T07:26:24.768Z,88.42
2022-09-24T07:28:51.179Z,88.53
2022-09-24T07:31:17.663Z,89.81
2022-09-24T07:33:44.558Z,89.45
2022-09-24T07:36:10.938Z,87.85
2022-09-24T07:38:37.349Z,87.66
2022-09-24T07:41:04.573Z,87.41
2022-09-24T07:43:33.193Z,87.10
2022-09-24T07:45:59.596Z,87.74
2022-09-24T07:48:25.987Z,87.59
2022-09-24T07:50:52.438Z,87.21
2022-09-24T07:53:18.864Z,86.19
2022-09-24T07:55:45.444Z,86.85
2022-09-24T07:58:13.693Z,86.15
2022-09-24T08:00:40.461Z,85.70
2022-09-24T08:03:07.416Z,85.70
2022-09-24T08:05:34.395Z,85.66
2022-09-24T08:08:00.890Z,85.77
2022-09-24T08:10:28.294Z,85.23
2022-09-24T08:12:56.948Z,85.37
2022-09-24T08:15:23.991Z,85.41
2022-09-24T08:17:50.923Z,85.42
2022-09-24T08:20:17.451Z,85.97
2022-09-24T08:22:43.982Z,85.20
2022-09-24T08:25:10.388Z,85.16
2022-09-24T09:23:10.797Z,80.93
2022-09-24T09:25:47.149Z,80.08
2022-09-24T09:28:15.570Z,79.00
2022-09-24T09:30:51.151Z,77.18
2022-09-24T09:33:48.597Z,77.00
2022-09-24T09:36:58.370Z,77.40
2022-09-24T09:39:51.742Z,77.28
2022-09-24T09:42:40.284Z,78.38
2022-09-24T09:45:28.126Z,77.54
2022-09-24T09:47:57.075Z,77.62
2022-09-24T09:50:41.512Z,76.71
2022-09-24T09:53:25.339Z,74.67
2022-09-24T09:56:03.317Z,75.71
2022-09-24T09:58:36.058Z,75.45
2022-09-24T10:01:06.597Z,76.67
2022-09-24T10:03:52.174Z,76.23
2022-09-24T10:06:27.539Z,76.39
2022-09-24T10:08:54.337Z,75.71
2022-09-24T10:11:22.854Z,75.05
2022-09-24T10:14:05.134Z,74.12
2022-09-24T10:16:38.207Z,75.15
2022-09-24T10:19:14.762Z,75.64
2022-09-24T10:21:41.208Z,76.03
2022-09-24T10:24:16.317Z,75.83
2022-09-24T10:26:45.630Z,75.90
2022-09-24T10:29:50.581Z,75.87
2022-09-24T10:32:22.968Z,74.38
2022-09-24T10:35:00.403Z,74.43
2022-09-24T10:37:28.155Z,75.23
2022-09-24T10:40:02.788Z,76.17
2022-09-24T10:42:31.283Z,75.40
2022-09-24T10:45:03.484Z,74.64
2022-09-24T10:47:38.780Z,75.83
2022-09-24T10:50:26.046Z,75.50
2022-09-24T10:53:12.723Z,74.16
2022-09-24T10:55:55.315Z,72.67
2022-09-24T10:58:35.568Z,72.93
2022-09-24T11:01:17.702Z,72.90
2022-09-24T11:04:02.865Z,74.76
2022-09-24T11:07:00.351Z,73.85
2022-09-24T11:09:31.351Z,73.51
2022-09-24T11:12:09.401Z,73.93
2022-09-24T11:15:20.166Z,73.46
2022-09-24T11:18:22.804Z,73.40
2022-09-24T11:21:28.122Z,75.50
2022-09-24T11:24:20.436Z,75.29
2022-09-24T11:27:22.226Z,74.96
2022-09-24T11:30:15.198Z,73.69
2022-09-24T11:32:52.993Z,73.90
2022-09-24T11:35:28.095Z,73.21
2022-09-24T11:38:09.392Z,72.72
2022-09-24T11:41:21.216Z,72.69
2022-09-24T11:44:18.699Z,72.65
2022-09-24T11:47:04.317Z,73.35
2022-09-24T11:49:33.590Z,72.23
2022-09-24T11:52:06.174Z,72.46
2022-09-24T11:54:40.144Z,72.83
2022-09-24T11:57:21.846Z,73.66
2022-09-24T12:00:11.756Z,74.48
2022-09-24T12:02:45.253Z,74.11
2022-09-24T12:05:22.389Z,73.41
2022-09-24T12:07:54.989Z,76.07
2022-09-24T12:10:31.560Z,73.92
2022-09-24T12:13:06.972Z,73.37
2022-09-24T12:15:48.185Z,73.78
2022-09-24T12:18:21.005Z,73.98
2022-09-24T12:21:01.493Z,73.14
2022-09-24T12:23:39.518Z,73.87
2022-09-24T12:26:07.755Z,72.00
2022-09-24T12:29:27.028Z,72.17
2022-09-24T12:32:42.575Z,71.33
2022-09-24T12:35:27.674Z,70.36
2022-09-24T12:38:19.252Z,69.33
2022-09-24T12:41:18.798Z,70.00
2022-09-24T12:43:52.039Z,69.67
2022-09-24T12:46:23.876Z,69.90
2022-09-24T12:48:52.494Z,69.15
2022-09-24T12:51:23.868Z,69.08
2022-09-24T12:54:05.954Z,68.30
2022-09-24T12:56:32.606Z,68.53
2022-09-24T12:58:59.268Z,68.31
2022-09-24T13:01:30.541Z,69.42
2022-09-24T13:04:06.816Z,67.84
2022-09-24T13:06:36.921Z,68.57
2022-09-24T13:09:25.949Z,67.54
2022-09-24T13:12:20.899Z,66.95
2022-09-24T13:15:10.136Z,68.21
2022-09-24T13:17:38.581Z,69.68
2022-09-24T13:20:08.274Z,68.60
2022-09-24T13:22:36.719Z,68.73
2022-09-24T13:25:20.905Z,67.89
2022-09-24T13:28:00.771Z,67.74
2022-09-24T13:30:30.289Z,68.72
2022-09-24T13:33:04.668Z,68.55
2022-09-24T13:35:35.322Z,69.73
2022-09-24T13:38:18.001Z,70.44
2022-09-24T13:40:52.340Z,67.27
2022-09-24T13:43:46.488Z,67.08
2022-09-24T13:46:17.614Z,68.65
2022-09-24T13:48:53.638Z,69.70
2022-09-24T13:51:28.575Z,70.36
2022-09-24T13:54:24.926Z,69.92
2022-09-24T13:57:10.954Z,69.95
2022-09-24T13:59:37.568Z,70.27
2022-09-24T14:02:04.106Z,69.87
2022-09-24T14:04:30.584Z,69.67
2022-09-24T14:07:01.387Z,67.53
2022-09-24T14:09:36.405Z,67.78
2022-09-24T14:12:16.854Z,68.96
2022-09-24T14:14:47.264Z,67.67
2022-09-24T14:17:15.375Z,68.30
2022-09-24T14:19:42.517Z,69.00
2022-09-24T14:22:21.602Z,69.04
2022-09-24T14:25:06.756Z,68.98
2022-09-24T14:27:36.964Z,67.59
2022-09-24T14:30:08.781Z,67.83
2022-09-24T14:32:38.170Z,67.90
2022-09-24T14:35:10.798Z,68.52
2022-09-24T14:37:46.354Z,68.38
2022-09-24T14:40:15.632Z,68.24
2022-09-24T14:42:45.698Z,67.35
2022-09-24T14:45:25.096Z,66.94
2022-09-24T14:48:01.681Z,66.74
2022-09-24T14:50:39.596Z,67.60
2022-09-24T14:53:25.351Z,67.65
2022-09-24T14:55:51.997Z,68.80
2022-09-24T14:58:31.347Z,69.62
2022-09-24T15:01:15.602Z,69.56
2022-09-24T15:03:50.770Z,69.42
2022-09-24T15:06:32.296Z,69.74
2022-09-24T15:09:15.610Z,70.08
2022-09-24T15:11:43.838Z,70.47
2022-09-24T15:14:16.202Z,70.78
2022-09-24T15:16:44.482Z,71.04
2022-09-24T15:19:28.585Z,71.20
2022-09-24T15:21:56.770Z,71.25
2022-09-24T15:24:24.268Z,71.94
2022-09-24T15:27:06.033Z,72.46
2022-09-24T15:29:32.415Z,73.32
2022-09-24T15:31:59.237Z,72.91
2022-09-24T15:34:26.021Z,72.61
2022-09-24T15:36:55.287Z,72.87
2022-09-24T15:39:22.194Z,73.24
2022-09-24T15:41:48.568Z,73.97
2022-09-24T15:44:22.509Z,74.22
2022-09-24T15:46:51.182Z,74.23
2022-09-24T15:49:22.132Z,74.81
2022-09-24T15:51:50.528Z,76.32
2022-09-24T15:54:16.929Z,75.83
2022-09-24T15:56:44.331Z,75.97
2022-09-24T15:59:14.492Z,75.14
2022-09-24T16:01:42.394Z,75.89
2022-09-24T16:04:11.437Z,75.99
2022-09-24T16:06:38.760Z,76.15
2022-09-24T16:09:05.293Z,77.06
2022-09-24T16:11:32.117Z,76.82
2022-09-24T16:13:58.515Z,76.96
2022-09-24T16:16:25.002Z,76.48
2022-09-24T16:18:52.440Z,76.39
2022-09-24T16:21:18.869Z,76.51
2022-09-24T16:23:45.308Z,77.24
2022-09-24T16:26:11.678Z,77.30
2022-09-24T16:28:38.059Z,77.53
2022-09-24T16:31:07.567Z,78.15
2022-09-24T16:33:38.585Z,79.05
2022-09-24T16:36:06.104Z,79.93
2022-09-24T16:38:36.406Z,80.70
2022-09-24T16:41:03.752Z,80.35
2022-09-24T16:43:30.433Z,80.23
2022-09-24T16:46:01.734Z,80.76
2022-09-24T16:48:28.204Z,80.08
2022-09-24T16:50:55.379Z,79.73
2022-09-24T16:53:21.764Z,80.29
2022-09-24T16:55:50.318Z,80.31
2022-09-24T16:58:16.706Z,81.06
2022-09-24T17:00:43.600Z,80.86
2022-09-24T17:03:11.273Z,81.50
2022-09-24T17:05:40.608Z,81.74
2022-09-24T17:08:07.057Z,81.71
2022-09-24T17:10:33.454Z,81.87
2022-09-24T17:13:01.685Z,82.75
2022-09-24T17:15:28.276Z,82.74
2022-09-24T17:17:54.757Z,82.51
2022-09-24T17:20:21.299Z,83.02
2022-09-24T17:22:48.957Z,83.08
2022-09-24T17:25:15.822Z,83.66
2022-09-24T17:27:42.299Z,83.67
2022-09-24T17:30:10.801Z,84.05
2022-09-24T17:32:37.195Z,84.19
2022-09-24T17:35:03.678Z,85.04
2022-09-24T17:37:30.097Z,85.35
2022-09-24T17:39:56.867Z,85.33
2022-09-24T17:42:23.340Z,86.27
2022-09-24T17:44:49.814Z,86.08
2022-09-24T17:47:16.220Z,86.79
2022-09-24T17:49:42.762Z,87.59
2022-09-24T17:52:09.143Z,87.41
2022-09-24T17:54:36.080Z,87.67
2022-09-24T17:57:02.536Z,87.37
2022-09-24T17:59:29.003Z,87.97
2022-09-24T18:01:55.774Z,88.95
2022-09-24T18:04:22.375Z,91.83
2022-09-24T18:06:49.961Z,88.92
2022-09-24T18:09:18.004Z,88.98
2022-09-24T18:11:50.043Z,87.80
2022-09-24T18:14:18.778Z,89.35
2022-09-24T18:16:45.682Z,89.84
2022-09-24T18:19:15.632Z,91.16
2022-09-24T18:21:42.917Z,90.94
2022-09-24T18:24:10.105Z,91.31
2022-09-24T18:26:39.170Z,91.58
2022-09-24T18:29:10.981Z,91.28
2022-09-24T18:31:38.030Z,91.27
2022-09-24T18:34:07.634Z,92.00
2022-09-24T18:36:36.874Z,91.33
2022-09-24T18:39:05.724Z,92.29
2022-09-24T18:41:32.420Z,91.81
2022-09-24T18:43:59.858Z,92.73
2022-09-24T18:46:29.083Z,93.40
2022-09-24T18:48:57.091Z,93.98
2022-09-24T18:51:25.352Z,94.21
2022-09-24T18:53:52.760Z,94.93
2022-09-24T18:56:19.158Z,94.73
2022-09-24T18:58:47.009Z,94.97
2022-09-24T19:01:15.567Z,95.03
2022-09-24T19:03:43.351Z,95.02
2022-09-24T19:06:12.763Z,95.18
2022-09-24T19:08:39.704Z,94.93
2022-09-24T19:11:09.868Z,94.95
2022-09-24T19:13:41.183Z,94.18
2022-09-24T19:16:13.176Z,94.43
2022-09-24T19:18:41.023Z,94.34
2022-09-24T19:21:09.840Z,93.73
2022-09-24T19:23:41.162Z,94.77
2022-09-24T19:26:08.613Z,94.34
2022-09-24T19:28:36.395Z,94.07
2022-09-24T19:31:02.865Z,94.80
2022-09-24T19:33:29.316Z,95.04
2022-09-24T19:36:02.043Z,96.23
2022-09-24T19:38:31.188Z,96.13
2022-09-24T19:40:59.864Z,95.77
2022-09-24T19:43:26.868Z,95.06
2022-09-24T19:46:00.807Z,95.02
2022-09-24T19:48:29.220Z,94.57
2022-09-24T19:51:00.826Z,94.33
2022-09-24T19:53:27.955Z,94.84
2022-09-24T19:55:54.533Z,94.61
2022-09-24T19:58:20.966Z,94.76
2022-09-24T20:00:47.347Z,94.18
2022-09-24T20:03:13.781Z,95.37
2022-09-24T20:05:41.809Z,95.08
2022-09-24T20:08:11.088Z,95.11
2022-09-24T20:10:37.576Z,95.72
2022-09-24T20:13:05.207Z,96.16
2022-09-24T20:15:31.673Z,98.22
2022-09-24T20:17:58.583Z,98.35
2022-09-24T20:20:25.656Z,98.40
2022-09-24T20:22:52.045Z,99.45
2022-09-24T20:25:18.448Z,100.00
2022-09-24T20:27:50.937Z,100.00
2022-09-24T20:30:23.795Z,100.00
2022-09-24T20:32:50.691Z,100.00
2022-09-24T20:35:17.207Z,100.00
2022-09-24T20:37:43.736Z,100.00
2022-09-24T20:40:10.538Z,100.00
2022-09-24T20:42:38.470Z,100.00
2022-09-24T20:45:06.703Z,100.00
2022-09-24T20:47:33.112Z,100.00
2022-09-24T20:49:59.526Z,100.00
2022-09-24T20:52:25.922Z,100.00
2022-09-24T20:54:52.308Z,100.00
2022-09-24T20:57:18.695Z,100.00
2022-09-24T20:59:45.086Z,100.00
2022-09-24T21:02:12.112Z,100.00
2022-09-24T21:04:38.639Z,100.00
2022-09-24T21:07:05.551Z,100.00
2022-09-24T21:09:31.949Z,100.00
2022-09-24T21:11:58.360Z,100.00
2022-09-24T21:14:26.090Z,100.00
2022-09-24T21:16:54.618Z,100.00
2022-09-24T21:19:22.713Z,100.00
2022-09-24T21:21:49.396Z,100.00
2022-09-24T21:24:16.371Z,100.00
2022-09-24T21:26:45.334Z,100.00
2022-09-24T21:29:17.869Z,100.00
2022-09-24T21:31:46.417Z,100.00
2022-09-24T21:34:14.652Z,100.00
2022-09-24T21:36:44.682Z,100.00
2022-09-24T21:39:23.093Z,100.00
2022-09-24T21:41:51.142Z,100.00
2022-09-24T21:44:19.109Z,100.00
2022-09-24T21:46:46.394Z,100.00
2022-09-24T21:49:12.992Z,100.00
2022-09-24T21:51:39.624Z,100.00
2022-09-24T21:54:09.649Z,100.00
2022-09-24T21:56:36.928Z,100.00
2022-09-24T21:59:26.646Z,100.00
2022-09-24T22:01:54.193Z,100.00
2022-09-24T22:04:21.368Z,100.00
2022-09-24T22:06:48.650Z,100.00
2022-09-24T22:09:15.978Z,100.00
2022-09-24T22:11:42.953Z,100.00
2022-09-24T22:14:10.307Z,100.00
2022-09-24T22:16:36.866Z,100.00
2022-09-24T22:19:05.985Z,100.00
2022-09-24T22:21:33.488Z,100.00
2022-09-24T22:24:00.122Z,100.00
2022-09-24T22:26:26.607Z,100.00
2022-09-24T22:28:53.898Z,100.00
2022-09-24T22:31:20.427Z,100.00
2022-09-24T22:34:05.403Z,100.00
2022-09-24T22:36:33.191Z,100.00
2022-09-24T22:39:00.896Z,100.00
2022-09-24T22:41:28.981Z,100.00
2022-09-24T22:43:56.978Z,100.00
2022-09-24T22:46:27.286Z,100.00
2022-09-24T22:48:55.748Z,100.00
2022-09-24T22:51:23.194Z,100.00
2022-09-24T22:53:49.665Z,100.00
2022-09-24T22:56:22.036Z,100.00
2022-09-24T22:58:54.310Z,100.00
2022-09-24T23:01:24.170Z,100.00
2022-09-24T23:03:52.130Z,100.00
2022-09-24T23:06:20.810Z,100.00
2022-09-24T23:08:48.257Z,100.00
2022-09-24T23:11:17.176Z,100.00
2022-09-24T23:13:45.087Z,100.00
2022-09-24T23:16:17.470Z,100.00
2022-09-24T23:18:46.788Z,100.00
2022-09-24T23:21:16.358Z,100.00
2022-09-24T23:23:44.008Z,100.00
2022-09-24T23:26:20.707Z,100.00
2022-09-24T23:28:52.841Z,100.00
2022-09-24T23:31:25.315Z,100.00
2022-09-24T23:33:53.399Z,100.00
2022-09-24T23:36:19.786Z,100.00
2022-09-24T23:38:46.197Z,100.00
2022-09-24T23:41:13.444Z,100.00
2022-09-24T23:43:41.460Z,100.00
2022-09-24T23:46:08.875Z,100.00
2022-09-24T23:48:35.333Z,100.00
2022-09-24T23:51:01.757Z,100.00
2022-09-24T23:53:28.141Z,100.00
2022-09-24T23:55:55.230Z,100.00
2022-09-24T23:58:24.063Z,100.00
